Terminal Aerodrome Forecast
Issued by NWS

Home | Current Version | Previous Version | Graphics & Text | Print | Product List | Glossary On
Versions: 1 2 3 4 5 6 7 8 9 10 11 12 13 14 15 16 17 18
000
FTUS43 KBIS 272337
TAFJMS
TAF
KJMS 272337Z 2800/2824 06007KT P6SM SCT090
     FM280400 13009KT 5SM -SHRA BR OVC080
     FM281000 14006KT 5SM BR SCT015 BKN040
     FM281500 19010KT P6SM SCT040
     FM281900 29013G20KT P6SM BKN100=

USA.gov is the U.S. government's official web portal to all federal, state and local government web resources and services.